sensor_id;sensor_type;location;lat;lon;timestamp;pressure;altitude;pressure_sealevel;temperature;humidity
51287;BME280;37364;46.974;18.916;2023-06-26T00:01:00;154775.13;;;17.54;100.00
51287;BME280;37364;46.974;18.916;2023-06-26T00:03:32;154760.81;;;17.48;100.00
51287;BME280;37364;46.974;18.916;2023-06-26T00:06:02;154758.22;;;17.47;100.00
51287;BME280;37364;46.974;18.916;2023-06-26T00:08:32;154772.53;;;17.53;100.00
51287;BME280;37364;46.974;18.916;2023-06-26T00:11:05;154762.13;;;17.49;100.00
51287;BME280;37364;46.974;18.916;2023-06-26T00:13:35;154745.19;;;17.42;100.00
51287;BME280;37364;46.974;18.916;2023-06-26T00:16:06;154742.63;;;17.41;100.00
51287;BME280;37364;46.974;18.916;2023-06-26T00:18:36;154725.69;;;17.34;100.00
51287;BME280;37364;46.974;18.916;2023-06-26T00:21:06;154710.09;;;17.28;100.00
51287;BME280;37364;46.974;18.916;2023-06-26T00:23:36;154706.19;;;17.27;100.00
51287;BME280;37364;46.974;18.916;2023-06-26T00:26:09;154706.19;;;17.27;100.00
51287;BME280;37364;46.974;18.916;2023-06-26T00:28:39;154708.81;;;17.28;100.00
51287;BME280;37364;46.974;18.916;2023-06-26T00:31:10;154686.72;;;17.19;100.00
51287;BME280;37364;46.974;18.916;2023-06-26T00:33:40;154698.41;;;17.24;100.00
51287;BME280;37364;46.974;18.916;2023-06-26T00:36:10;154691.91;;;17.21;100.00
51287;BME280;37364;46.974;18.916;2023-06-26T00:38:41;154681.47;;;17.17;100.00
51287;BME280;37364;46.974;18.916;2023-06-26T00:41:14;154680.19;;;17.16;100.00
51287;BME280;37364;46.974;18.916;2023-06-26T00:43:44;154678.88;;;17.16;100.00
51287;BME280;37364;46.974;18.916;2023-06-26T00:46:14;154669.78;;;17.12;100.00
51287;BME280;37364;46.974;18.916;2023-06-26T00:48:46;154681.47;;;17.17;100.00
51287;BME280;37364;46.974;18.916;2023-06-26T00:51:18;154690.56;;;17.20;100.00
51287;BME280;37364;46.974;18.916;2023-06-26T00:53:50;154691.91;;;17.21;100.00
51287;BME280;37364;46.974;18.916;2023-06-26T00:56:23;154686.72;;;17.19;100.00
51287;BME280;37364;46.974;18.916;2023-06-26T00:58:53;154668.50;;;17.12;100.00
51287;BME280;37364;46.974;18.916;2023-06-26T01:01:26;154652.91;;;17.06;100.00
51287;BME280;37364;46.974;18.916;2023-06-26T01:03:56;154635.97;;;16.99;100.00
51287;BME280;37364;46.974;18.916;2023-06-26T01:06:28;154615.16;;;16.91;100.00
51287;BME280;37364;46.974;18.916;2023-06-26T01:09:02;154615.16;;;16.91;100.00
51287;BME280;37364;46.974;18.916;2023-06-26T01:11:35;154595.66;;;16.83;100.00
51287;BME280;37364;46.974;18.916;2023-06-26T01:14:05;154587.84;;;16.80;100.00
51287;BME280;37364;46.974;18.916;2023-06-26T01:16:38;154577.44;;;16.76;100.00
51287;BME280;37364;46.974;18.916;2023-06-26T01:19:11;154573.53;;;16.74;100.00
51287;BME280;37364;46.974;18.916;2023-06-26T01:21:44;154565.69;;;16.71;100.00
51287;BME280;37364;46.974;18.916;2023-06-26T01:24:17;154554.03;;;16.67;100.00
51287;BME280;37364;46.974;18.916;2023-06-26T01:26:58;154559.22;;;16.69;100.00
51287;BME280;37364;46.974;18.916;2023-06-26T01:29:30;154538.44;;;16.60;100.00
51287;BME280;37364;46.974;18.916;2023-06-26T01:32:01;154548.81;;;16.65;100.00
51287;BME280;37364;46.974;18.916;2023-06-26T01:34:32;154517.59;;;16.52;100.00
51287;BME280;37364;46.974;18.916;2023-06-26T01:37:02;154489.03;;;16.41;100.00
51287;BME280;37364;46.974;18.916;2023-06-26T01:39:33;154468.25;;;16.33;100.00
51287;BME280;37364;46.974;18.916;2023-06-26T01:42:07;154463.03;;;16.31;100.00
51287;BME280;37364;46.974;18.916;2023-06-26T01:44:44;154460.41;;;16.30;100.00
51287;BME280;37364;46.974;18.916;2023-06-26T01:47:19;154440.91;;;16.22;100.00
51287;BME280;37364;46.974;18.916;2023-06-26T01:49:55;154440.91;;;16.22;100.00
51287;BME280;37364;46.974;18.916;2023-06-26T01:52:30;154424.03;;;16.15;100.00
51287;BME280;37364;46.974;18.916;2023-06-26T01:55:10;154416.22;;;16.12;100.00
51287;BME280;37364;46.974;18.916;2023-06-26T01:57:45;154407.13;;;16.09;100.00
51287;BME280;37364;46.974;18.916;2023-06-26T02:00:17;154409.75;;;16.10;100.00
51287;BME280;37364;46.974;18.916;2023-06-26T02:02:48;154385.06;;;16.00;100.00
51287;BME280;37364;46.974;18.916;2023-06-26T02:05:19;154373.31;;;15.95;100.00
51287;BME280;37364;46.974;18.916;2023-06-26T02:07:50;154369.47;;;15.94;100.00
51287;BME280;37364;46.974;18.916;2023-06-26T02:10:21;154370.75;;;15.94;100.00
51287;BME280;37364;46.974;18.916;2023-06-26T02:12:53;154369.47;;;15.94;100.00
51287;BME280;37364;46.974;18.916;2023-06-26T02:15:24;154355.16;;;15.88;100.00
51287;BME280;37364;46.974;18.916;2023-06-26T02:17:54;154352.53;;;15.87;100.00
51287;BME280;37364;46.974;18.916;2023-06-26T02:20:26;154343.44;;;15.84;100.00
51287;BME280;37364;46.974;18.916;2023-06-26T02:22:56;154353.88;;;15.88;100.00
51287;BME280;37364;46.974;18.916;2023-06-26T02:25:26;154368.13;;;15.93;100.00
51287;BME280;37364;46.974;18.916;2023-06-26T02:27:59;154334.38;;;15.80;100.00
51287;BME280;37364;46.974;18.916;2023-06-26T02:30:30;154322.66;;;15.75;100.00
51287;BME280;37364;46.974;18.916;2023-06-26T02:33:01;154297.91;;;15.66;100.00
51287;BME280;37364;46.974;18.916;2023-06-26T02:35:31;154284.97;;;15.60;100.00
51287;BME280;37364;46.974;18.916;2023-06-26T02:38:02;154290.16;;;15.62;100.00
51287;BME280;37364;46.974;18.916;2023-06-26T02:40:32;154294.00;;;15.64;100.00
51287;BME280;37364;46.974;18.916;2023-06-26T02:43:06;154283.63;;;15.60;100.00
51287;BME280;37364;46.974;18.916;2023-06-26T02:45:37;154291.44;;;15.63;100.00
51287;BME280;37364;46.974;18.916;2023-06-26T02:48:08;154283.63;;;15.60;100.00
51287;BME280;37364;46.974;18.916;2023-06-26T02:50:40;154286.25;;;15.61;100.00
51287;BME280;37364;46.974;18.916;2023-06-26T02:53:14;154286.25;;;15.61;100.00
51287;BME280;37364;46.974;18.916;2023-06-26T02:55:46;154296.63;;;15.65;100.00
51287;BME280;37364;46.974;18.916;2023-06-26T02:58:20;154283.63;;;15.60;100.00
51287;BME280;37364;46.974;18.916;2023-06-26T03:00:50;154296.63;;;15.65;100.00
51287;BME280;37364;46.974;18.916;2023-06-26T03:03:21;154314.84;;;15.72;100.00
51287;BME280;37364;46.974;18.916;2023-06-26T03:05:51;154330.47;;;15.78;100.00
51287;BME280;37364;46.974;18.916;2023-06-26T03:08:21;154339.56;;;15.82;100.00
51287;BME280;37364;46.974;18.916;2023-06-26T03:10:52;154372.03;;;15.95;100.00
51287;BME280;37364;46.974;18.916;2023-06-26T03:13:24;154369.47;;;15.94;100.00
51287;BME280;37364;46.974;18.916;2023-06-26T03:15:55;154377.22;;;15.97;100.00
51287;BME280;37364;46.974;18.916;2023-06-26T03:18:25;154374.66;;;15.96;100.00
51287;BME280;37364;46.974;18.916;2023-06-26T03:20:56;154374.66;;;15.96;100.00
51287;BME280;37364;46.974;18.916;2023-06-26T03:23:27;154365.56;;;15.92;100.00
51287;BME280;37364;46.974;18.916;2023-06-26T03:25:57;154333.03;;;15.79;100.00
51287;BME280;37364;46.974;18.916;2023-06-26T03:28:33;154331.75;;;15.79;100.00
51287;BME280;37364;46.974;18.916;2023-06-26T03:31:03;154335.66;;;15.80;100.00
51287;BME280;37364;46.974;18.916;2023-06-26T03:33:33;154331.75;;;15.79;100.00
51287;BME280;37364;46.974;18.916;2023-06-26T03:36:04;154353.88;;;15.88;100.00
51287;BME280;37364;46.974;18.916;2023-06-26T03:38:35;154383.75;;;15.99;100.00
51287;BME280;37364;46.974;18.916;2023-06-26T03:41:06;154407.13;;;16.09;100.00
51287;BME280;37364;46.974;18.916;2023-06-26T03:43:38;154401.91;;;16.07;100.00
51287;BME280;37364;46.974;18.916;2023-06-26T03:46:31;154408.44;;;16.09;100.00
51287;BME280;37364;46.974;18.916;2023-06-26T03:49:01;154413.66;;;16.11;100.00
51287;BME280;37364;46.974;18.916;2023-06-26T03:51:34;154450.03;;;16.26;100.00
51287;BME280;37364;46.974;18.916;2023-06-26T03:54:04;154440.91;;;16.22;100.00
51287;BME280;37364;46.974;18.916;2023-06-26T03:56:35;154439.63;;;16.21;100.00
51287;BME280;37364;46.974;18.916;2023-06-26T03:59:08;154460.41;;;16.30;100.00
51287;BME280;37364;46.974;18.916;2023-06-26T04:01:38;154476.00;;;16.36;100.00
51287;BME280;37364;46.974;18.916;2023-06-26T04:04:08;154474.72;;;16.35;100.00
51287;BME280;37364;46.974;18.916;2023-06-26T04:06:38;154502.00;;;16.46;100.00
51287;BME280;37364;46.974;18.916;2023-06-26T04:09:09;154531.91;;;16.58;100.00
51287;BME280;37364;46.974;18.916;2023-06-26T04:11:39;154565.69;;;16.71;100.00
51287;BME280;37364;46.974;18.916;2023-06-26T04:14:12;154604.75;;;16.87;100.00
51287;BME280;37364;46.974;18.916;2023-06-26T04:16:43;154632.09;;;16.97;100.00
51287;BME280;37364;46.974;18.916;2023-06-26T04:19:13;154671.06;;;17.13;100.00
51287;BME280;37364;46.974;18.916;2023-06-26T04:21:43;154727.03;;;17.35;100.00
51287;BME280;37364;46.974;18.916;2023-06-26T04:24:14;154758.22;;;17.47;100.00
51287;BME280;37364;46.974;18.916;2023-06-26T04:26:44;154786.88;;;17.58;100.00
51287;BME280;37364;46.974;18.916;2023-06-26T04:29:17;154786.88;;;17.58;100.00
51287;BME280;37364;46.974;18.916;2023-06-26T04:31:48;154871.47;;;17.92;100.00
51287;BME280;37364;46.974;18.916;2023-06-26T04:34:18;154842.78;;;17.81;100.00
51287;BME280;37364;46.974;18.916;2023-06-26T04:36:48;154910.50;;;18.07;100.00
51287;BME280;37364;46.974;18.916;2023-06-26T04:39:19;154975.56;;;18.33;100.00
51287;BME280;37364;46.974;18.916;2023-06-26T04:41:49;155043.22;;;18.60;100.00
51287;BME280;37364;46.974;18.916;2023-06-26T04:44:22;155081.00;;;18.74;100.00
51287;BME280;37364;46.974;18.916;2023-06-26T04:46:52;155120.13;;;18.90;100.00
51287;BME280;37364;46.974;18.916;2023-06-26T04:49:22;155127.91;;;18.93;100.00
51287;BME280;37364;46.974;18.916;2023-06-26T04:51:54;155191.72;;;19.18;100.00
51287;BME280;37364;46.974;18.916;2023-06-26T04:54:27;155169.59;;;19.09;100.00
51287;BME280;37364;46.974;18.916;2023-06-26T04:56:58;155233.34;;;19.34;100.00
51287;BME280;37364;46.974;18.916;2023-06-26T04:59:30;155246.41;;;19.40;100.00
51287;BME280;37364;46.974;18.916;2023-06-26T05:02:01;155170.88;;;19.10;100.00
51287;BME280;37364;46.974;18.916;2023-06-26T05:04:32;155284.19;;;19.54;100.00
51287;BME280;37364;46.974;18.916;2023-06-26T05:07:02;155236.00;;;19.35;100.00
51287;BME280;37364;46.974;18.916;2023-06-26T05:09:32;155324.56;;;19.70;100.00
51287;BME280;37364;46.974;18.916;2023-06-26T05:12:03;155341.53;;;19.77;100.00
51287;BME280;37364;46.974;18.916;2023-06-26T05:14:36;155332.41;;;19.73;100.00
51287;BME280;37364;46.974;18.916;2023-06-26T05:17:06;155437.97;;;20.15;100.00
51287;BME280;37364;46.974;18.916;2023-06-26T05:19:37;155564.41;;;20.65;100.00
51287;BME280;37364;46.974;18.916;2023-06-26T05:22:08;155548.72;;;20.59;100.00
51287;BME280;37364;46.974;18.916;2023-06-26T05:24:39;155702.56;;;21.19;100.00
51287;BME280;37364;46.974;18.916;2023-06-26T05:27:11;155775.63;;;21.48;100.00
51287;BME280;37364;46.974;18.916;2023-06-26T05:29:51;155669.97;;;21.06;100.00
51287;BME280;37364;46.974;18.916;2023-06-26T05:32:22;155569.59;;;20.67;100.00
51287;BME280;37364;46.974;18.916;2023-06-26T05:34:54;155690.81;;;21.14;100.00
51287;BME280;37364;46.974;18.916;2023-06-26T05:37:26;155722.13;;;21.27;100.00
51287;BME280;37364;46.974;18.916;2023-06-26T05:39:58;155649.13;;;20.98;100.00
51287;BME280;37364;46.974;18.916;2023-06-26T05:42:30;155866.94;;;21.84;100.00
51287;BME280;37364;46.974;18.916;2023-06-26T05:45:04;155645.19;;;20.97;100.00
51287;BME280;37364;46.974;18.916;2023-06-26T05:47:34;155624.34;;;20.88;100.00
51287;BME280;37364;46.974;18.916;2023-06-26T05:50:08;155856.50;;;21.80;100.00
51287;BME280;37364;46.974;18.916;2023-06-26T05:52:38;155843.44;;;21.75;100.00
51287;BME280;37364;46.974;18.916;2023-06-26T05:55:10;156006.56;;;22.39;100.00
51287;BME280;37364;46.974;18.916;2023-06-26T05:57:41;156138.34;;;22.90;100.00
51287;BME280;37364;46.974;18.916;2023-06-26T06:00:15;156127.91;;;22.86;100.00
51287;BME280;37364;46.974;18.916;2023-06-26T06:02:46;156184.06;;;23.08;100.00
51287;BME280;37364;46.974;18.916;2023-06-26T06:05:16;156048.28;;;22.55;100.00
51287;BME280;37364;46.974;18.916;2023-06-26T06:07:47;156168.41;;;23.02;100.00
51287;BME280;37364;46.974;18.916;2023-06-26T06:10:17;156257.16;;;23.37;100.00
51287;BME280;37364;46.974;18.916;2023-06-26T06:12:47;156092.66;;;22.73;100.00
51287;BME280;37364;46.974;18.916;2023-06-26T06:15:20;156167.06;;;23.02;100.00
51287;BME280;37364;46.974;18.916;2023-06-26T06:17:51;155945.16;;;22.15;100.00
51287;BME280;37364;46.974;18.916;2023-06-26T06:20:21;155998.72;;;22.36;100.00
51287;BME280;37364;46.974;18.916;2023-06-26T06:22:51;156143.53;;;22.93;100.00
51287;BME280;37364;46.974;18.916;2023-06-26T06:25:21;156248.00;;;23.34;100.00
51287;BME280;37364;46.974;18.916;2023-06-26T06:27:51;156187.97;;;23.10;100.00
51287;BME280;37364;46.974;18.916;2023-06-26T06:30:24;156378.63;;;23.85;100.00
51287;BME280;37364;46.974;18.916;2023-06-26T06:33:01;156361.66;;;23.78;100.00
51287;BME280;37364;46.974;18.916;2023-06-26T06:35:32;156428.25;;;24.04;100.00
51287;BME280;37364;46.974;18.916;2023-06-26T06:38:02;156493.53;;;24.30;100.00
51287;BME280;37364;46.974;18.916;2023-06-26T06:40:32;156386.47;;;23.88;100.00
51287;BME280;37364;46.974;18.916;2023-06-26T06:43:03;156383.84;;;23.87;100.00
51287;BME280;37364;46.974;18.916;2023-06-26T06:45:36;156571.97;;;24.61;100.00
51287;BME280;37364;46.974;18.916;2023-06-26T06:48:06;156334.16;;;23.67;100.00
51287;BME280;37364;46.974;18.916;2023-06-26T06:50:36;156143.53;;;22.93;100.00
51287;BME280;37364;46.974;18.916;2023-06-26T06:53:07;156258.47;;;23.38;100.00
51287;BME280;37364;46.974;18.916;2023-06-26T06:55:37;156323.72;;;23.63;100.00
51287;BME280;37364;46.974;18.916;2023-06-26T06:58:07;156496.19;;;24.31;100.00
51287;BME280;37364;46.974;18.916;2023-06-26T07:00:40;156656.91;;;24.94;100.00
51287;BME280;37364;46.974;18.916;2023-06-26T07:03:11;156637.28;;;24.86;100.00
51287;BME280;37364;46.974;18.916;2023-06-26T07:05:41;156455.69;;;24.15;100.00
51287;BME280;37364;46.974;18.916;2023-06-26T07:08:12;156544.47;;;24.50;100.00
51287;BME280;37364;46.974;18.916;2023-06-26T07:10:43;156636.00;;;24.86;100.00
51287;BME280;37364;46.974;18.916;2023-06-26T07:13:13;156618.97;;;24.79;100.00
51287;BME280;37364;46.974;18.916;2023-06-26T07:15:46;156604.66;;;24.74;100.00
51287;BME280;37364;46.974;18.916;2023-06-26T07:18:17;156728.78;;;25.22;100.00
51287;BME280;37364;46.974;18.916;2023-06-26T07:20:47;156812.44;;;25.55;100.00
51287;BME280;37364;46.974;18.916;2023-06-26T07:23:17;156688.25;;;25.06;100.00
51287;BME280;37364;46.974;18.916;2023-06-26T07:25:47;156715.72;;;25.17;100.00
51287;BME280;37364;46.974;18.916;2023-06-26T07:28:17;156762.78;;;25.36;100.00
51287;BME280;37364;46.974;18.916;2023-06-26T07:30:50;156856.88;;;25.73;100.00
51287;BME280;37364;46.974;18.916;2023-06-26T07:33:20;156839.91;;;25.66;100.00
51287;BME280;37364;46.974;18.916;2023-06-26T07:35:51;156781.09;;;25.43;100.00
51287;BME280;37364;46.974;18.916;2023-06-26T07:38:21;156761.47;;;25.35;100.00
51287;BME280;37364;46.974;18.916;2023-06-26T07:40:51;156836.00;;;25.64;100.00
51287;BME280;37364;46.974;18.916;2023-06-26T07:43:21;156696.09;;;25.10;100.00
51287;BME280;37364;46.974;18.916;2023-06-26T07:45:54;156671.28;;;25.00;100.00
51287;BME280;37364;46.974;18.916;2023-06-26T07:48:25;156585.06;;;24.66;100.00
51287;BME280;37364;46.974;18.916;2023-06-26T07:50:55;156633.38;;;24.85;100.00
51287;BME280;37364;46.974;18.916;2023-06-26T07:53:25;156773.22;;;25.40;100.00
51287;BME280;37364;46.974;18.916;2023-06-26T07:55:56;156717.00;;;25.18;100.00
51287;BME280;37364;46.974;18.916;2023-06-26T07:58:26;156830.75;;;25.62;100.00
51287;BME280;37364;46.974;18.916;2023-06-26T08:00:59;156832.06;;;25.63;100.00
51287;BME280;37364;46.974;18.916;2023-06-26T08:03:29;156796.78;;;25.49;100.00
51287;BME280;37364;46.974;18.916;2023-06-26T08:06:02;156604.66;;;24.74;100.00
51287;BME280;37364;46.974;18.916;2023-06-26T08:08:33;156889.59;;;25.85;100.00
51287;BME280;37364;46.974;18.916;2023-06-26T08:11:03;157063.50;;;26.54;100.00
51287;BME280;37364;46.974;18.916;2023-06-26T08:13:36;156813.75;;;25.56;100.00
51287;BME280;37364;46.974;18.916;2023-06-26T08:16:09;156921.00;;;25.98;100.00
51287;BME280;37364;46.974;18.916;2023-06-26T08:18:39;156834.69;;;25.64;100.00
51287;BME280;37364;46.974;18.916;2023-06-26T08:21:09;156796.78;;;25.49;100.00
51287;BME280;37364;46.974;18.916;2023-06-26T08:23:39;156915.78;;;25.96;100.00
51287;BME280;37364;46.974;18.916;2023-06-26T08:26:09;156913.13;;;25.95;99.71
51287;BME280;37364;46.974;18.916;2023-06-26T08:28:40;156879.09;;;25.81;100.00
51287;BME280;37364;46.974;18.916;2023-06-26T08:31:12;157050.44;;;26.49;97.61
51287;BME280;37364;46.974;18.916;2023-06-26T08:33:43;157022.97;;;26.38;100.00
51287;BME280;37364;46.974;18.916;2023-06-26T08:36:13;157126.34;;;26.78;100.00
51287;BME280;37364;46.974;18.916;2023-06-26T08:38:43;157087.09;;;26.63;100.00
51287;BME280;37364;46.974;18.916;2023-06-26T08:41:13;157151.19;;;26.88;94.82
51287;BME280;37364;46.974;18.916;2023-06-26T08:43:44;157080.56;;;26.60;96.92
51287;BME280;37364;46.974;18.916;2023-06-26T08:46:17;156988.97;;;26.24;98.78
51287;BME280;37364;46.974;18.916;2023-06-26T08:48:49;156892.19;;;25.87;90.13
51287;BME280;37364;46.974;18.916;2023-06-26T08:51:25;157011.22;;;26.33;95.09
51287;BME280;37364;46.974;18.916;2023-06-26T08:53:58;157096.25;;;26.67;93.10
51287;BME280;37364;46.974;18.916;2023-06-26T08:56:32;157249.38;;;27.27;97.06
51287;BME280;37364;46.974;18.916;2023-06-26T08:59:05;157139.44;;;26.83;87.24
51287;BME280;37364;46.974;18.916;2023-06-26T09:01:40;157009.91;;;26.33;84.57
51287;BME280;37364;46.974;18.916;2023-06-26T09:04:10;157026.91;;;26.39;89.44
51287;BME280;37364;46.974;18.916;2023-06-26T09:06:41;157118.47;;;26.75;87.99
51287;BME280;37364;46.974;18.916;2023-06-26T09:09:11;157081.88;;;26.61;81.63
51287;BME280;37364;46.974;18.916;2023-06-26T09:11:42;157179.97;;;26.99;83.55
51287;BME280;37364;46.974;18.916;2023-06-26T09:14:12;157233.56;;;27.20;79.87
51287;BME280;37364;46.974;18.916;2023-06-26T09:16:46;157132.88;;;26.81;72.68
51287;BME280;37364;46.974;18.916;2023-06-26T09:19:16;157289.91;;;27.42;74.86
51287;BME280;37364;46.974;18.916;2023-06-26T09:21:50;157176.03;;;26.98;77.47
51287;BME280;37364;46.974;18.916;2023-06-26T09:24:21;157253.25;;;27.28;70.42
51287;BME280;37364;46.974;18.916;2023-06-26T09:26:52;157274.22;;;27.36;68.55
51287;BME280;37364;46.974;18.916;2023-06-26T09:29:22;157168.19;;;26.95;69.66
51287;BME280;37364;46.974;18.916;2023-06-26T09:31:56;157173.41;;;26.97;73.69
51287;BME280;37364;46.974;18.916;2023-06-26T09:34:30;157092.31;;;26.65;74.59
51287;BME280;37364;46.974;18.916;2023-06-26T09:37:00;157254.59;;;27.29;73.08
51287;BME280;37364;46.974;18.916;2023-06-26T09:39:31;157253.25;;;27.28;68.62
51287;BME280;37364;46.974;18.916;2023-06-26T09:42:02;157212.66;;;27.12;69.48
51287;BME280;37364;46.974;18.916;2023-06-26T09:44:34;157262.41;;;27.32;66.92
51287;BME280;37364;46.974;18.916;2023-06-26T09:47:07;157234.91;;;27.21;65.43
51287;BME280;37364;46.974;18.916;2023-06-26T09:49:40;157348.75;;;27.66;61.89
51287;BME280;37364;46.974;18.916;2023-06-26T09:52:14;157193.03;;;27.05;66.47
51287;BME280;37364;46.974;18.916;2023-06-26T09:54:46;157376.25;;;27.76;61.88
51287;BME280;37364;46.974;18.916;2023-06-26T09:57:17;157376.25;;;27.76;62.89
51287;BME280;37364;46.974;18.916;2023-06-26T09:59:48;157361.88;;;27.71;61.77
51287;BME280;37364;46.974;18.916;2023-06-26T10:02:22;157305.63;;;27.49;68.73
51287;BME280;37364;46.974;18.916;2023-06-26T10:04:52;157275.53;;;27.37;62.79
51287;BME280;37364;46.974;18.916;2023-06-26T10:07:23;157191.72;;;27.04;60.09
51287;BME280;37364;46.974;18.916;2023-06-26T10:09:55;157402.41;;;27.87;61.17
51287;BME280;37364;46.974;18.916;2023-06-26T10:12:28;157249.38;;;27.27;57.31
51287;BME280;37364;46.974;18.916;2023-06-26T10:14:59;157242.78;;;27.24;59.42
51287;BME280;37364;46.974;18.916;2023-06-26T10:17:36;157313.44;;;27.52;60.70
51287;BME280;37364;46.974;18.916;2023-06-26T10:20:09;157403.72;;;27.87;65.19
51287;BME280;37364;46.974;18.916;2023-06-26T10:22:44;157431.28;;;27.98;67.32
51287;BME280;37364;46.974;18.916;2023-06-26T10:25:19;157390.66;;;27.82;58.24
51287;BME280;37364;46.974;18.916;2023-06-26T10:27:54;157179.97;;;26.99;57.55
51287;BME280;37364;46.974;18.916;2023-06-26T10:30:31;157306.91;;;27.49;56.50
51287;BME280;37364;46.974;18.916;2023-06-26T10:33:07;157380.19;;;27.78;54.13
51287;BME280;37364;46.974;18.916;2023-06-26T10:35:42;157520.28;;;28.33;53.92
51287;BME280;37364;46.974;18.916;2023-06-26T10:38:13;157398.50;;;27.85;56.18
51287;BME280;37364;46.974;18.916;2023-06-26T10:40:44;157325.25;;;27.56;57.52
51287;BME280;37364;46.974;18.916;2023-06-26T10:43:16;157460.09;;;28.09;53.23
51287;BME280;37364;46.974;18.916;2023-06-26T10:45:47;157418.16;;;27.93;51.96
51287;BME280;37364;46.974;18.916;2023-06-26T10:48:29;157529.47;;;28.36;54.36
51287;BME280;37364;46.974;18.916;2023-06-26T10:51:13;157568.72;;;28.52;54.42
51287;BME280;37364;46.974;18.916;2023-06-26T10:53:43;157621.13;;;28.72;54.95
51287;BME280;37364;46.974;18.916;2023-06-26T10:56:14;157757.34;;;29.26;54.95
51287;BME280;37364;46.974;18.916;2023-06-26T10:58:44;157723.28;;;29.12;57.87
51287;BME280;37364;46.974;18.916;2023-06-26T11:01:19;157478.38;;;28.16;51.80
51287;BME280;37364;46.974;18.916;2023-06-26T11:04:05;157549.03;;;28.44;53.24
51287;BME280;37364;46.974;18.916;2023-06-26T11:06:36;157403.72;;;27.87;52.52
51287;BME280;37364;46.974;18.916;2023-06-26T11:09:09;157418.16;;;27.93;52.10
51287;BME280;37364;46.974;18.916;2023-06-26T11:11:56;157520.28;;;28.33;53.65
51287;BME280;37364;46.974;18.916;2023-06-26T11:14:32;157555.63;;;28.47;49.50
51287;BME280;37364;46.974;18.916;2023-06-26T11:17:04;157432.56;;;27.98;50.85
51287;BME280;37364;46.974;18.916;2023-06-26T11:19:42;157609.38;;;28.68;50.86
51287;BME280;37364;46.974;18.916;2023-06-26T11:22:13;157597.53;;;28.63;49.67
51287;BME280;37364;46.974;18.916;2023-06-26T11:24:44;157538.56;;;28.40;49.64
51287;BME280;37364;46.974;18.916;2023-06-26T11:27:14;157555.63;;;28.47;53.43
51287;BME280;37364;46.974;18.916;2023-06-26T11:29:48;157409.00;;;27.89;50.15
51287;BME280;37364;46.974;18.916;2023-06-26T11:32:18;157416.88;;;27.92;52.49
51287;BME280;37364;46.974;18.916;2023-06-26T11:34:55;157494.06;;;28.23;53.81
51287;BME280;37364;46.974;18.916;2023-06-26T11:37:25;157503.25;;;28.26;52.45
51287;BME280;37364;46.974;18.916;2023-06-26T11:39:56;157665.66;;;28.90;53.92
51287;BME280;37364;46.974;18.916;2023-06-26T11:42:26;157799.22;;;29.42;52.01
51287;BME280;37364;46.974;18.916;2023-06-26T11:44:57;157606.72;;;28.67;55.39
51287;BME280;37364;46.974;18.916;2023-06-26T11:47:27;157682.66;;;28.96;53.21
51287;BME280;37364;46.974;18.916;2023-06-26T11:50:04;157731.16;;;29.15;56.40
51287;BME280;37364;46.974;18.916;2023-06-26T11:52:35;157672.19;;;28.92;55.27
51287;BME280;37364;46.974;18.916;2023-06-26T11:55:06;157663.00;;;28.89;55.25
51287;BME280;37364;46.974;18.916;2023-06-26T11:57:38;157600.19;;;28.64;53.52
51287;BME280;37364;46.974;18.916;2023-06-26T12:00:13;157668.25;;;28.91;55.38
51287;BME280;37364;46.974;18.916;2023-06-26T12:02:44;157742.94;;;29.20;51.50
51287;BME280;37364;46.974;18.916;2023-06-26T12:05:18;157560.88;;;28.49;56.60
51287;BME280;37364;46.974;18.916;2023-06-26T12:07:49;157450.91;;;28.06;54.43
51287;BME280;37364;46.974;18.916;2023-06-26T12:10:20;157615.88;;;28.70;58.72
51287;BME280;37364;46.974;18.916;2023-06-26T12:12:50;157628.97;;;28.75;55.08
51287;BME280;37364;46.974;18.916;2023-06-26T12:15:23;157653.84;;;28.85;54.65
51287;BME280;37364;46.974;18.916;2023-06-26T12:17:54;157745.56;;;29.21;59.89
51287;BME280;37364;46.974;18.916;2023-06-26T12:20:27;157701.00;;;29.04;54.01
51287;BME280;37364;46.974;18.916;2023-06-26T12:22:59;157822.81;;;29.51;55.41
51287;BME280;37364;46.974;18.916;2023-06-26T12:25:32;157719.31;;;29.11;56.26
51287;BME280;37364;46.974;18.916;2023-06-26T12:28:03;157674.81;;;28.93;57.19
51287;BME280;37364;46.974;18.916;2023-06-26T12:30:33;157829.34;;;29.54;57.53
51287;BME280;37364;46.974;18.916;2023-06-26T12:33:12;157706.22;;;29.06;54.72
51287;BME280;37364;46.974;18.916;2023-06-26T12:35:45;157851.66;;;29.63;53.88
51287;BME280;37364;46.974;18.916;2023-06-26T12:38:15;157787.47;;;29.37;60.01
51287;BME280;37364;46.974;18.916;2023-06-26T12:40:47;157656.47;;;28.86;57.72
51287;BME280;37364;46.974;18.916;2023-06-26T12:43:23;157739.00;;;29.18;58.90
51287;BME280;37364;46.974;18.916;2023-06-26T12:45:54;157702.28;;;29.04;56.42
51287;BME280;37364;46.974;18.916;2023-06-26T12:48:36;157767.81;;;29.30;56.75
51287;BME280;37364;46.974;18.916;2023-06-26T12:51:14;157652.53;;;28.85;53.78
51287;BME280;37364;46.974;18.916;2023-06-26T12:53:44;157732.47;;;29.16;50.11
51287;BME280;37364;46.974;18.916;2023-06-26T12:56:15;157655.19;;;28.86;52.74